Time;durP1;ratioP1;P1;durP2;ratioP2;P2;SDS_P1;SDS_P2;PMS_P1;PMS_P2;Temp;Humidity;BMP_temperature;BMP_pressure;BME280_temperature;BME280_humidity;BME280_pressure;Samples;Min_cycle;Max_cycle;Signal;HPM_P1;HPM_P2
2022/05/28 00:00:19;;;;;;;;;0.67;0.67;;;;;19.34;46.55;98200.03;4871169;28;103662;-80
2022/05/28 00:02:46;;;;;;;;;0.67;0.67;;;;;19.32;46.68;98200.28;4843524;28;101764;-80
2022/05/28 00:05:13;;;;;;;;;0.67;0.67;;;;;19.31;46.56;98190.44;4850788;28;103476;-80
2022/05/28 00:07:40;;;;;;;;;0.67;0.67;;;;;19.30;46.62;98190.69;4845452;28;103586;-77
2022/05/28 00:10:09;;;;;;;;;2.33;2.00;;;;;19.30;46.54;98190.69;4857988;28;103344;-79
2022/05/28 00:12:36;;;;;;;;;1.67;0.67;;;;;19.28;46.59;98190.97;4792029;28;102247;-79
2022/05/28 00:15:05;;;;;;;;;0.67;0.67;;;;;19.29;46.44;98192.63;4872783;28;102050;-79
2022/05/28 00:17:33;;;;;;;;;1.33;1.00;;;;;19.32;46.43;98196.72;4873617;28;102471;-79
2022/05/28 00:20:00;;;;;;;;;1.00;1.00;;;;;19.33;46.56;98193.72;4871221;28;103538;-80
2022/05/28 00:22:27;;;;;;;;;0.67;0.67;;;;;19.32;46.34;98199.47;4873265;28;101896;-80
2022/05/28 00:24:57;;;;;;;;;1.00;1.00;;;;;19.33;46.21;98198.38;4876357;28;104669;-79
2022/05/28 00:27:24;;;;;;;;;1.00;1.00;;;;;19.32;46.36;98197.56;4872312;28;101849;-79
2022/05/28 00:29:51;;;;;;;;;1.67;0.67;;;;;19.31;46.59;98195.94;4871268;28;103968;-80
2022/05/28 00:32:18;;;;;;;;;0.00;0.00;;;;;19.30;46.73;98202.50;4836863;28;101605;-79
2022/05/28 00:34:46;;;;;;;;;0.00;0.00;;;;;19.29;46.55;98192.63;4867241;28;101978;-80
2022/05/28 00:37:13;;;;;;;;;1.00;1.00;;;;;19.27;46.50;98199.47;4864208;28;102103;-79
2022/05/28 00:39:40;;;;;;;;;1.33;0.67;;;;;19.26;46.54;98195.91;4871247;28;103394;-77
2022/05/28 00:42:07;;;;;;;;;0.67;0.67;;;;;19.25;46.76;98185.19;4865985;28;102084;-79
2022/05/28 00:44:34;;;;;;;;;1.33;1.33;;;;;19.24;46.48;98189.84;4869217;28;109472;-79
2022/05/28 00:47:02;;;;;;;;;0.67;0.67;;;;;19.25;46.33;98179.72;4876654;28;102165;-80
2022/05/28 00:49:30;;;;;;;;;0.33;0.33;;;;;19.23;46.76;98171.75;4867683;28;103881;-79
2022/05/28 00:52:02;;;;;;;;;1.67;0.67;;;;;19.22;46.26;98174.78;4831822;28;102016;-80
2022/05/28 00:54:32;;;;;;;;;0.33;0.33;;;;;19.23;46.15;98169.00;4872362;28;101843;-80
2022/05/28 00:56:59;;;;;;;;;1.33;1.33;;;;;19.24;46.51;98173.41;4851235;28;102083;-80
2022/05/28 00:59:26;;;;;;;;;1.33;0.67;;;;;19.24;46.16;98173.41;4839460;28;103411;-79
2022/05/28 01:01:56;;;;;;;;;1.00;1.00;;;;;19.25;46.26;98164.09;4846117;28;102221;-79
2022/05/28 01:04:23;;;;;;;;;0.67;0.67;;;;;19.25;46.48;98168.75;4817780;28;101977;-79
2022/05/28 01:07:08;;;;;;;;;0.33;0.33;;;;;19.24;46.43;98156.94;4845821;28;101756;-80
2022/05/28 01:09:54;;;;;;;;;1.00;0.67;;;;;19.22;46.42;98158.31;4858552;28;103628;-80
2022/05/28 01:12:45;;;;;;;;;0.67;0.67;;;;;19.18;46.31;98153.34;4860576;28;103186;-80
2022/05/28 01:15:27;;;;;;;;;1.00;1.00;;;;;19.17;46.33;98162.69;4824345;28;101819;-78
2022/05/28 01:18:11;;;;;;;;;0.67;0.33;;;;;19.20;46.69;98165.97;4843383;28;102160;-79
2022/05/28 01:20:50;;;;;;;;;2.00;1.67;;;;;19.19;46.22;98159.66;4847716;28;107991;-79
2022/05/28 01:23:28;;;;;;;;;1.33;1.00;;;;;19.17;46.57;98175.56;4864762;28;102051;-80
2022/05/28 01:25:55;;;;;;;;;0.67;0.67;;;;;19.19;46.44;98176.09;4848537;28;101802;-79
2022/05/28 01:28:32;;;;;;;;;0.67;0.67;;;;;19.21;45.92;98171.19;4863465;28;103419;-80
2022/05/28 01:31:00;;;;;;;;;1.00;0.67;;;;;19.19;46.31;98170.63;4863857;28;103424;-80
2022/05/28 01:33:27;;;;;;;;;1.00;0.67;;;;;19.18;46.31;98175.28;4848678;28;102211;-79
2022/05/28 01:35:54;;;;;;;;;2.00;0.67;;;;;19.18;46.30;98167.06;4843748;28;101904;-79
2022/05/28 01:38:21;;;;;;;;;0.67;0.67;;;;;19.19;46.56;98170.63;4838275;28;102278;-79
2022/05/28 01:40:49;;;;;;;;;0.67;0.67;;;;;19.16;46.16;98171.16;4845824;28;103588;-80
2022/05/28 01:43:17;;;;;;;;;2.00;1.00;;;;;19.15;46.22;98166.78;4866655;28;101771;-79
2022/05/28 01:45:47;;;;;;;;;1.00;1.00;;;;;19.15;46.14;98177.75;4826221;28;101863;-80
2022/05/28 01:48:14;;;;;;;;;0.33;0.33;;;;;19.15;46.35;98185.97;4856237;28;102396;-79
2022/05/28 01:50:44;;;;;;;;;0.67;0.67;;;;;19.13;46.36;98178.03;4855762;28;103372;-80
2022/05/28 01:54:07;;;;;;;;;0.00;0.00;;;;;19.14;46.39;98184.31;4847889;28;102053;-79
2022/05/28 01:56:01;;;;;;;;;1.67;1.00;;;;;19.14;46.14;98179.66;4838209;28;101757;-79
2022/05/28 01:58:28;;;;;;;;;0.67;0.67;;;;;19.14;45.99;98178.81;4853982;28;102861;-79
2022/05/28 02:00:55;;;;;;;;;1.67;0.67;;;;;19.14;46.16;98173.34;4850965;28;103584;-79
2022/05/28 02:03:22;;;;;;;;;0.67;0.67;;;;;19.13;46.45;98167.06;4847926;28;101711;-79
2022/05/28 02:05:49;;;;;;;;;1.67;1.00;;;;;19.12;46.24;98176.38;4872459;28;102090;-79
2022/05/28 02:08:16;;;;;;;;;0.67;0.67;;;;;19.11;46.33;98174.72;4868022;28;102046;-79
2022/05/28 02:10:46;;;;;;;;;1.50;1.50;;;;;19.09;46.28;98171.41;4876947;28;103363;-77
2022/05/28 02:13:23;;;;;;;;;1.33;1.33;;;;;19.08;46.38;98155.25;4869490;28;103508;-78
2022/05/28 02:16:15;;;;;;;;;0.67;0.67;;;;;19.08;46.36;98157.97;4875274;28;101909;-80
2022/05/28 02:18:53;;;;;;;;;0.67;0.67;;;;;19.09;46.25;98154.94;4869574;28;101922;-77
2022/05/28 02:21:31;;;;;;;;;1.33;1.33;;;;;19.10;46.19;98158.53;4839739;28;107919;-79
2022/05/28 02:24:04;;;;;;;;;2.00;0.67;;;;;19.00;46.44;98150.28;4869771;28;102048;-80
2022/05/28 02:26:38;;;;;;;;;1.67;0.67;;;;;19.07;46.56;98162.63;4853826;28;101866;-80
2022/05/28 02:29:05;;;;;;;;;0.67;0.67;;;;;19.08;46.31;98152.50;4841158;28;102546;-80
2022/05/28 02:31:33;;;;;;;;;0.33;0.33;;;;;19.08;46.43;98161.56;4872406;28;103578;-80
2022/05/28 02:34:00;;;;;;;;;1.00;1.00;;;;;19.07;46.44;98162.63;4857543;28;101874;-79
2022/05/28 02:36:27;;;;;;;;;2.33;1.67;;;;;19.07;46.22;98165.38;4870520;28;102008;-79
2022/05/28 02:38:54;;;;;;;;;0.00;0.00;;;;;19.07;46.02;98159.06;4873243;28;102146;-80
2022/05/28 02:41:21;;;;;;;;;1.67;1.00;;;;;19.05;46.25;98155.75;4871233;28;103370;-79
2022/05/28 02:43:48;;;;;;;;;1.33;0.67;;;;;19.05;46.24;98156.56;4876377;28;102221;-80
2022/05/28 02:46:15;;;;;;;;;0.67;0.67;;;;;19.05;46.18;98153.84;4879890;28;101694;-79
2022/05/28 02:48:43;;;;;;;;;1.00;1.00;;;;;19.05;46.28;98148.34;4876690;28;102019;-80
2022/05/28 02:51:12;;;;;;;;;0.67;0.67;;;;;19.06;46.11;98138.22;4854828;28;108632;-80
2022/05/28 02:53:39;;;;;;;;;0.67;0.67;;;;;19.04;46.30;98141.25;4879541;28;101828;-80
2022/05/28 02:56:06;;;;;;;;;2.00;1.00;;;;;19.01;46.33;98136.28;4877126;28;101620;-79
2022/05/28 02:58:33;;;;;;;;;1.00;1.00;;;;;19.02;46.49;98142.59;4877075;28;102213;-80
2022/05/28 03:01:01;;;;;;;;;1.00;0.67;;;;;19.01;46.37;98141.75;4871722;28;103631;-79
2022/05/28 03:03:28;;;;;;;;;1.67;1.67;;;;;19.04;46.43;98151.38;4875493;28;101773;-80
2022/05/28 03:05:55;;;;;;;;;1.00;0.67;;;;;19.04;45.98;98154.13;4872760;28;101856;-79
2022/05/28 03:08:22;;;;;;;;;1.00;1.00;;;;;19.04;46.11;98156.88;4874972;28;101795;-80
2022/05/28 03:10:49;;;;;;;;;1.00;1.00;;;;;19.03;46.14;98157.94;4872543;28;103532;-79
2022/05/28 03:13:16;;;;;;;;;1.67;1.67;;;;;19.02;46.17;98150.81;4867731;28;102237;-79
2022/05/28 03:15:43;;;;;;;;;1.67;1.67;;;;;19.03;46.46;98141.50;4875714;28;101825;-80
2022/05/28 03:18:10;;;;;;;;;1.33;1.33;;;;;19.03;46.16;98130.53;4876952;28;102075;-79
2022/05/28 03:20:38;;;;;;;;;1.67;1.67;;;;;19.02;45.90;98128.91;4876771;28;103297;-79
2022/05/28 03:23:05;;;;;;;;;1.00;1.00;;;;;19.00;46.17;98131.88;4870230;28;101832;-79
2022/05/28 03:25:32;;;;;;;;;1.00;1.00;;;;;19.00;46.15;98133.84;4873201;28;102025;-79
2022/05/28 03:27:59;;;;;;;;;0.67;0.67;;;;;18.98;46.17;98142.31;4872081;28;101922;-80
2022/05/28 03:30:26;;;;;;;;;0.67;0.67;;;;;18.99;46.41;98138.47;4850805;28;103456;-80
2022/05/28 03:32:53;;;;;;;;;0.67;0.33;;;;;19.01;46.22;98140.94;4871516;28;101697;-80
2022/05/28 03:35:20;;;;;;;;;1.00;1.00;;;;;19.01;45.91;98124.50;4869847;28;102162;-79
2022/05/28 03:37:47;;;;;;;;;1.33;1.33;;;;;19.01;45.81;98121.75;4877933;28;101882;-79
2022/05/28 03:40:14;;;;;;;;;2.33;1.67;;;;;19.02;45.90;98142.59;4873975;28;103611;-79
2022/05/28 03:42:41;;;;;;;;;0.67;0.67;;;;;19.02;46.39;98137.13;4877307;28;102747;-80
2022/05/28 03:45:08;;;;;;;;;1.00;1.00;;;;;19.00;46.27;98155.75;4870113;28;101874;-79
2022/05/28 03:47:35;;;;;;;;;0.67;0.67;;;;;19.01;45.93;98158.22;4876658;28;102051;-80
2022/05/28 03:50:03;;;;;;;;;1.33;1.33;;;;;19.00;45.94;98150.28;4869933;28;103380;-79
2022/05/28 03:52:30;;;;;;;;;0.67;0.67;;;;;19.01;46.15;98141.75;4876533;28;101742;-79
2022/05/28 03:54:57;;;;;;;;;1.67;1.33;;;;;19.01;45.71;98132.72;4873155;28;102001;-80
2022/05/28 03:57:26;;;;;;;;;2.67;1.67;;;;;18.97;45.85;98126.94;4873940;28;102129;-80
2022/05/28 03:59:53;;;;;;;;;1.67;0.67;;;;;18.97;45.99;98131.59;4872479;28;103182;-79
2022/05/28 04:02:20;;;;;;;;;0.67;0.67;;;;;18.94;46.32;98137.63;4873969;28;101667;-80
2022/05/28 04:04:47;;;;;;;;;1.00;1.00;;;;;18.96;46.10;98149.94;4872290;28;101636;-79
2022/05/28 04:07:14;;;;;;;;;1.67;1.00;;;;;18.97;46.10;98146.13;4873788;28;102112;-80
2022/05/28 04:09:41;;;;;;;;;2.00;2.00;;;;;18.98;45.71;98136.81;4877117;28;107953;-80
2022/05/28 04:12:08;;;;;;;;;0.67;0.67;;;;;19.00;45.76;98139.31;4871290;28;101786;-80
2022/05/28 04:14:35;;;;;;;;;0.67;0.67;;;;;19.00;45.98;98139.31;4872019;28;101746;-80
2022/05/28 04:17:03;;;;;;;;;1.67;1.67;;;;;19.00;46.01;98134.63;4875981;28;101767;-80
2022/05/28 04:19:37;;;;;;;;;1.33;1.33;;;;;18.99;45.70;98137.66;4869929;28;103491;-79
2022/05/28 04:22:04;;;;;;;;;2.00;2.00;;;;;18.99;45.83;98140.41;4874915;28;102348;-80
2022/05/28 04:24:32;;;;;;;;;1.67;1.67;;;;;18.99;46.16;98127.53;4870635;28;102175;-79
2022/05/28 04:26:59;;;;;;;;;1.00;1.00;;;;;18.96;46.02;98125.28;4876073;28;102113;-79
2022/05/28 04:29:26;;;;;;;;;1.00;1.00;;;;;18.97;46.30;98128.88;4876322;28;103566;-80
2022/05/28 04:31:53;;;;;;;;;1.67;1.33;;;;;18.97;46.07;98123.38;4872326;28;101637;-80
2022/05/28 04:34:20;;;;;;;;;1.67;1.33;;;;;18.98;45.64;98125.03;4870236;28;103481;-80
2022/05/28 04:36:47;;;;;;;;;1.33;1.33;;;;;18.97;45.63;98123.38;4871987;28;101852;-79
2022/05/28 04:39:14;;;;;;;;;1.00;0.67;;;;;18.99;45.73;98132.19;4874813;28;103372;-79
2022/05/28 04:41:41;;;;;;;;;1.00;1.00;;;;;19.00;46.09;98136.56;4869129;28;101647;-79
2022/05/28 04:44:08;;;;;;;;;0.67;0.67;;;;;19.01;45.49;98136.28;4865229;28;101676;-79
2022/05/28 04:46:35;;;;;;;;;1.00;1.00;;;;;19.02;45.79;98137.94;4870311;28;101844;-80
2022/05/28 04:49:02;;;;;;;;;2.33;1.67;;;;;19.00;45.67;98131.88;4870208;28;103403;-80
2022/05/28 04:51:29;;;;;;;;;2.00;1.00;;;;;19.01;45.65;98129.97;4873094;28;102074;-80
2022/05/28 04:53:56;;;;;;;;;2.00;1.00;;;;;19.01;45.85;98129.97;4851706;28;101966;-79
2022/05/28 04:56:23;;;;;;;;;1.00;1.00;;;;;18.98;45.76;98125.88;4872350;28;101859;-79
2022/05/28 04:58:50;;;;;;;;;0.67;0.67;;;;;18.98;45.76;98120.38;4871432;28;103655;-79
2022/05/28 05:01:18;;;;;;;;;1.33;1.00;;;;;19.00;46.28;98129.16;4872676;28;102207;-79
2022/05/28 05:03:46;;;;;;;;;2.00;2.00;;;;;18.98;45.95;98136.00;4869949;28;101801;-80
2022/05/28 05:06:13;;;;;;;;;1.67;1.67;;;;;18.99;45.56;98135.75;4871676;28;102002;-80
2022/05/28 05:08:42;;;;;;;;;1.33;1.33;;;;;18.94;45.43;98135.72;4872109;28;108177;-79
2022/05/28 05:11:10;;;;;;;;;1.67;1.67;;;;;18.98;45.81;98145.03;4873078;28;102015;-79
2022/05/28 05:13:37;;;;;;;;;1.67;1.67;;;;;18.99;45.81;98146.72;4869286;28;102188;-79
2022/05/28 05:16:13;;;;;;;;;1.00;1.00;;;;;19.00;45.91;98147.53;4871468;28;101831;-80
2022/05/28 05:18:41;;;;;;;;;1.33;1.33;;;;;19.01;45.50;98152.72;4865498;28;103469;-79
2022/05/28 05:21:11;;;;;;;;;1.00;1.00;;;;;19.02;45.74;98142.59;4868307;28;103496;-79
2022/05/28 05:23:40;;;;;;;;;1.67;1.67;;;;;19.02;45.57;98142.59;4865587;28;101845;-80
2022/05/28 05:26:18;;;;;;;;;1.00;1.00;;;;;19.02;45.44;98146.16;4848443;28;104744;-79
2022/05/28 05:28:45;;;;;;;;;1.00;1.00;;;;;19.01;45.48;98149.16;4862516;28;107919;-80
2022/05/28 05:31:12;;;;;;;;;2.00;2.00;;;;;19.02;45.79;98148.06;4869374;28;101771;-79
2022/05/28 05:33:40;;;;;;;;;0.67;0.67;;;;;19.01;45.78;98152.72;4866907;28;102015;-80
2022/05/28 05:36:07;;;;;;;;;1.00;1.00;;;;;19.01;45.52;98157.38;4855838;28;101864;-80
2022/05/28 05:38:34;;;;;;;;;1.67;1.67;;;;;18.99;45.97;98151.34;4864550;28;103365;-79
2022/05/28 05:41:01;;;;;;;;;1.67;1.67;;;;;18.97;45.47;98145.31;4867203;28;101819;-80
2022/05/28 05:43:28;;;;;;;;;1.67;0.67;;;;;18.97;45.61;98146.13;4876500;28;102081;-79
2022/05/28 05:45:57;;;;;;;;;0.67;0.67;;;;;19.00;45.88;98153.00;4871025;28;101938;-80
2022/05/28 05:48:24;;;;;;;;;1.00;1.00;;;;;19.00;45.89;98156.56;4871937;28;103416;-79
2022/05/28 05:50:51;;;;;;;;;1.00;1.00;;;;;19.00;45.88;98155.75;4866782;28;102774;-80
2022/05/28 05:53:19;;;;;;;;;0.67;0.67;;;;;19.02;45.56;98159.03;4875039;28;102018;-78
2022/05/28 05:55:46;;;;;;;;;1.67;1.33;;;;;19.03;45.28;98160.69;4876970;28;101839;-80
2022/05/28 05:58:13;;;;;;;;;1.00;1.00;;;;;19.04;45.53;98154.13;4871948;28;109536;-79
2022/05/28 06:00:40;;;;;;;;;0.67;0.33;;;;;19.04;45.63;98156.88;4870054;28;101762;-79
2022/05/28 06:03:07;;;;;;;;;0.67;0.67;;;;;19.05;45.78;98158.50;4863922;28;102055;-79
2022/05/28 06:05:34;;;;;;;;;0.67;0.67;;;;;19.02;45.83;98148.91;4872866;28;102121;-80
2022/05/28 06:08:01;;;;;;;;;1.33;1.33;;;;;19.02;45.53;98143.41;4870221;28;103353;-80
2022/05/28 06:10:28;;;;;;;;;1.67;0.67;;;;;19.00;45.74;98145.59;4866956;28;101703;-80
2022/05/28 06:12:55;;;;;;;;;1.00;1.00;;;;;19.03;45.37;98145.06;4873681;28;102124;-79
2022/05/28 06:15:22;;;;;;;;;1.33;1.00;;;;;19.01;45.47;98149.16;4871620;28;101839;-80
2022/05/28 06:17:49;;;;;;;;;1.33;1.33;;;;;19.03;45.56;98136.84;4869567;28;103714;-80
2022/05/28 06:20:16;;;;;;;;;3.00;2.00;;;;;19.06;45.74;98143.72;4875283;28;101673;-79
2022/05/28 06:22:43;;;;;;;;;1.00;1.00;;;;;19.08;45.58;98144.28;4864825;28;102006;-79
2022/05/28 06:25:10;;;;;;;;;2.33;1.67;;;;;19.07;45.55;98134.41;4872517;28;102324;-79
2022/05/28 06:27:37;;;;;;;;;1.33;1.33;;;;;19.08;45.68;98141.53;4843828;28;103432;-80
2022/05/28 06:30:05;;;;;;;;;0.67;0.67;;;;;19.09;45.60;98138.50;4867891;28;102132;-80
2022/05/28 06:32:32;;;;;;;;;1.67;0.67;;;;;19.10;45.62;98136.59;4854620;28;102085;-80
2022/05/28 06:34:59;;;;;;;;;1.33;1.00;;;;;19.09;45.55;98133.03;4864688;28;109619;-80
2022/05/28 06:37:25;;;;;;;;;0.00;0.00;;;;;19.09;45.21;98138.50;4874159;28;103694;-79
2022/05/28 06:39:52;;;;;;;;;1.67;0.67;;;;;19.09;45.77;98137.72;4866824;28;102031;-79
2022/05/28 06:42:19;;;;;;;;;0.67;0.67;;;;;19.10;45.12;98136.59;4870599;28;101848;-77
2022/05/28 06:44:46;;;;;;;;;1.67;1.67;;;;;19.11;45.26;98141.00;4876025;28;101819;-79
2022/05/28 06:47:13;;;;;;;;;1.00;1.00;;;;;19.10;45.35;98133.84;4854203;28;103535;-79
2022/05/28 06:49:40;;;;;;;;;1.00;1.00;;;;;19.09;45.82;98140.44;4874661;28;101793;-80
2022/05/28 06:52:07;;;;;;;;;0.67;0.67;;;;;19.11;45.32;98132.78;4869655;28;102133;-79
2022/05/28 06:54:34;;;;;;;;;1.00;0.67;;;;;19.11;45.72;98138.25;4871301;28;101791;-79
2022/05/28 06:57:01;;;;;;;;;1.67;1.67;;;;;19.12;45.48;98127.03;4872714;28;103361;-79
2022/05/28 06:59:28;;;;;;;;;0.67;0.67;;;;;19.12;45.74;98131.69;4866951;28;101823;-79
2022/05/28 07:01:56;;;;;;;;;0.33;0.33;;;;;19.14;45.28;98129.47;4872818;28;101771;-79
2022/05/28 07:04:23;;;;;;;;;0.33;0.33;;;;;19.13;45.89;98134.16;4868528;28;102748;-79
2022/05/28 07:06:52;;;;;;;;;1.00;1.00;;;;;19.12;45.64;98126.19;4882750;28;103398;-79
2022/05/28 07:09:19;;;;;;;;;1.00;1.00;;;;;19.13;45.34;98122.38;4878176;28;101827;-76
2022/05/28 07:11:46;;;;;;;;;1.67;0.67;;;;;19.13;45.50;98119.63;4874961;28;101954;-79
2022/05/28 07:14:13;;;;;;;;;0.67;0.67;;;;;19.13;45.47;98120.47;4874913;28;101915;-79
2022/05/28 07:16:40;;;;;;;;;0.00;0.00;;;;;19.13;45.53;98114.97;4874652;28;103694;-79
2022/05/28 07:19:10;;;;;;;;;1.00;0.67;;;;;19.13;45.29;98117.72;4875405;28;101742;-79
2022/05/28 07:21:37;;;;;;;;;0.67;0.67;;;;;19.12;45.81;98113.34;4867700;28;102178;-79
2022/05/28 07:24:04;;;;;;;;;0.67;0.67;;;;;19.13;45.54;98109.50;4873063;28;101870;-80
2022/05/28 07:26:32;;;;;;;;;0.33;0.33;;;;;19.14;45.29;98107.56;4869440;28;103381;-79
2022/05/28 07:28:59;;;;;;;;;0.33;0.33;;;;;19.13;45.39;98111.41;4874318;28;101760;-80
2022/05/28 07:31:25;;;;;;;;;1.67;0.67;;;;;19.14;45.11;98107.56;4870208;28;102164;-79
2022/05/28 07:33:53;;;;;;;;;2.00;1.33;;;;;19.14;45.46;98107.56;4872856;28;102157;-79
2022/05/28 07:36:21;;;;;;;;;1.67;1.00;;;;;19.13;45.30;98103.19;4881004;28;103377;-80
2022/05/28 07:38:48;;;;;;;;;0.00;0.00;;;;;19.14;45.62;98096.59;4872471;28;101852;-80
2022/05/28 07:41:17;;;;;;;;;0.00;0.00;;;;;19.14;45.46;98102.06;4875482;28;103920;-79
2022/05/28 07:43:44;;;;;;;;;0.00;0.00;;;;;19.14;45.46;98102.06;4870987;28;102888;-80
2022/05/28 07:46:13;;;;;;;;;0.00;0.00;;;;;19.13;45.44;98100.44;4875877;28;103551;-80
2022/05/28 07:48:40;;;;;;;;;0.67;0.67;;;;;19.14;45.64;98097.44;4871587;28;103675;-80
2022/05/28 07:51:07;;;;;;;;;0.67;0.00;;;;;19.13;45.54;98101.28;4872179;28;101790;-79
2022/05/28 07:53:35;;;;;;;;;1.00;1.00;;;;;19.15;45.43;98109.22;4875206;28;101909;-80
2022/05/28 07:56:04;;;;;;;;;0.67;0.67;;;;;19.11;45.47;98103.44;4854321;28;103328;-78
2022/05/28 07:58:32;;;;;;;;;1.00;1.00;;;;;19.16;45.53;98119.09;4871974;28;103663;-80
2022/05/28 08:00:59;;;;;;;;;0.67;0.67;;;;;19.14;45.38;98113.88;4868400;28;101878;-79
2022/05/28 08:03:26;;;;;;;;;0.33;0.33;;;;;19.14;45.54;98119.34;4875694;28;102044;-79
2022/05/28 08:05:53;;;;;;;;;0.33;0.00;;;;;19.14;45.38;98115.78;4854771;28;103394;-80
2022/05/28 08:08:21;;;;;;;;;1.00;1.00;;;;;19.14;45.56;98113.88;4871911;28;101657;-80
2022/05/28 08:10:48;;;;;;;;;0.67;0.67;;;;;19.14;45.28;98118.53;4873588;28;104657;-80
2022/05/28 08:13:18;;;;;;;;;0.67;0.67;;;;;19.13;45.43;98117.72;4871558;28;101798;-80
2022/05/28 08:15:45;;;;;;;;;0.67;0.67;;;;;19.16;45.50;98110.88;4865495;28;103319;-80
2022/05/28 08:18:14;;;;;;;;;0.67;0.33;;;;;19.15;45.36;98111.97;4872339;28;102622;-79
2022/05/28 08:23:26;;;;;;;;;0.67;0.67;;;;;19.15;45.53;98106.47;4868293;28;102018;-79
2022/05/28 08:25:53;;;;;;;;;0.67;0.00;;;;;19.15;45.31;98109.22;4874852;28;103461;-79
2022/05/28 08:28:21;;;;;;;;;0.33;0.33;;;;;19.17;45.21;98109.78;4876343;28;101891;-80
2022/05/28 08:30:48;;;;;;;;;1.00;1.00;;;;;19.17;45.57;98102.38;4872117;28;101842;-79
2022/05/28 08:33:16;;;;;;;;;1.00;0.00;;;;;19.19;45.41;98104.84;4875573;28;102113;-79
2022/05/28 08:35:43;;;;;;;;;1.00;1.00;;;;;19.17;45.22;98110.63;4877083;28;103377;-80
2022/05/28 08:38:19;;;;;;;;;0.00;0.00;;;;;19.18;44.92;98103.22;4858481;28;101735;-80
2022/05/28 08:40:59;;;;;;;;;0.67;0.67;;;;;19.18;45.31;98093.06;4877123;28;101901;-80
2022/05/28 08:43:32;;;;;;;;;0.00;0.00;;;;;19.19;45.43;98088.41;4867459;28;102165;-79
2022/05/28 08:45:59;;;;;;;;;0.33;0.33;;;;;19.17;45.35;98091.44;4852120;28;103417;-80
2022/05/28 08:48:48;;;;;;;;;1.00;0.67;;;;;19.19;45.39;98085.66;4871885;28;101772;-80
2022/05/28 08:51:15;;;;;;;;;0.00;0.00;;;;;19.19;45.33;98088.41;4869187;28;101691;-79
2022/05/28 08:53:46;;;;;;;;;0.00;0.00;;;;;19.20;45.13;98090.06;4872256;28;102016;-80
2022/05/28 08:56:16;;;;;;;;;0.67;0.00;;;;;19.20;45.41;98086.47;4870046;28;103337;-80
2022/05/28 08:58:43;;;;;;;;;0.00;0.00;;;;;19.20;45.10;98095.53;4827098;28;101777;-80
2022/05/28 09:01:15;;;;;;;;;0.33;0.00;;;;;19.20;45.35;98101.00;4869470;28;101959;-79
2022/05/28 09:03:54;;;;;;;;;0.00;0.00;;;;;19.22;45.28;98085.13;4853811;28;110504;-79
2022/05/28 09:06:29;;;;;;;;;0.00;0.00;;;;;19.21;45.21;98080.75;4831551;28;108254;-80
2022/05/28 09:08:56;;;;;;;;;0.00;0.00;;;;;19.21;45.47;98097.19;4852795;28;102074;-79
2022/05/28 09:12:02;;;;;;;;;0.67;0.33;;;;;19.22;45.03;98087.06;4864283;28;101690;-79
2022/05/28 09:14:37;;;;;;;;;0.67;0.67;;;;;19.22;44.92;98095.28;4783122;29;101879;-80
2022/05/28 09:17:08;;;;;;;;;1.00;1.00;;;;;19.22;45.12;98087.06;4785769;29;103518;-80
2022/05/28 09:19:38;;;;;;;;;0.67;0.67;;;;;19.22;45.14;98093.38;4829557;28;102064;-80
2022/05/28 09:22:05;;;;;;;;;0.33;0.33;;;;;19.22;45.14;98087.06;4866048;28;102899;-80
2022/05/28 09:24:33;;;;;;;;;0.00;0.00;;;;;19.22;45.03;98087.88;4870518;28;104910;-80
2022/05/28 09:27:34;;;;;;;;;0.33;0.00;;;;;19.23;45.28;98080.47;4870793;28;103421;-79
2022/05/28 09:30:19;;;;;;;;;1.00;1.00;;;;;19.23;45.28;98077.75;4856391;28;101773;-79
2022/05/28 09:33:10;;;;;;;;;0.00;0.00;;;;;19.23;45.10;98084.03;4869483;28;102020;-80
2022/05/28 09:35:55;;;;;;;;;0.33;0.33;;;;;19.22;45.27;98085.13;4869350;28;102045;-80
2022/05/28 09:38:45;;;;;;;;;0.00;0.00;;;;;19.23;45.07;98091.44;4867564;28;108832;-79
2022/05/28 09:41:31;;;;;;;;;0.67;0.67;;;;;19.22;45.08;98085.13;4871664;28;102667;-79
2022/05/28 09:44:18;;;;;;;;;1.00;1.00;;;;;19.23;44.93;98085.97;4870681;28;104643;-79
2022/05/28 09:46:45;;;;;;;;;0.00;0.00;;;;;19.22;45.20;98079.66;4874717;28;101833;-80
2022/05/28 09:49:14;;;;;;;;;0.00;0.00;;;;;19.23;45.05;98084.03;4855132;28;103855;-80
2022/05/28 09:51:58;;;;;;;;;0.33;0.00;;;;;19.24;45.21;98080.19;4871003;28;102017;-80
2022/05/28 09:54:30;;;;;;;;;0.67;0.00;;;;;19.24;45.12;98068.41;4862075;28;102126;-79
2022/05/28 09:56:59;;;;;;;;;0.33;0.33;;;;;19.25;45.29;98072.78;4870069;28;101960;-80
2022/05/28 09:59:37;;;;;;;;;0.67;0.67;;;;;19.25;45.37;98068.16;4853646;28;103495;-79
2022/05/28 10:02:15;;;;;;;;;0.33;0.33;;;;;19.25;45.12;98070.06;4854089;28;101826;-80
2022/05/28 10:05:03;;;;;;;;;0.33;0.33;;;;;19.25;45.09;98057.19;4847956;28;102290;-80
2022/05/28 10:07:35;;;;;;;;;0.67;0.67;;;;;19.27;45.05;98057.75;4854396;28;101971;-79
2022/05/28 10:10:26;;;;;;;;;0.00;0.00;;;;;19.27;44.95;98046.78;4871868;28;103649;-79
2022/05/28 10:13:13;;;;;;;;;1.00;1.00;;;;;19.27;44.67;98045.97;4863693;28;104616;-77
2022/05/28 10:15:46;;;;;;;;;0.00;0.00;;;;;19.27;45.02;98048.69;4849702;28;101804;-80
2022/05/28 10:18:16;;;;;;;;;0.67;0.67;;;;;19.27;44.78;98052.25;4847468;28;101782;-79
2022/05/28 10:20:43;;;;;;;;;0.33;0.00;;;;;19.27;45.09;98052.25;4867281;28;103384;-80
2022/05/28 10:23:14;;;;;;;;;0.67;0.00;;;;;19.28;44.92;98045.66;4853156;28;101725;-79
2022/05/28 10:25:49;;;;;;;;;0.00;0.00;;;;;19.28;44.79;98048.41;4834611;28;102187;-78
2022/05/28 10:28:30;;;;;;;;;0.00;0.00;;;;;19.29;44.73;98036.34;4871350;28;101787;-80
2022/05/28 10:30:57;;;;;;;;;0.33;0.00;;;;;19.29;45.22;98030.88;4865771;28;108064;-80
2022/05/28 10:33:29;;;;;;;;;0.00;0.00;;;;;19.28;45.22;98031.97;4881070;28;104546;-79
2022/05/28 10:36:10;;;;;;;;;1.00;1.00;;;;;19.28;45.01;98034.69;4871733;28;101773;-79
2022/05/28 10:38:38;;;;;;;;;0.67;0.00;;;;;19.29;44.92;98054.72;4870966;28;101785;-80
2022/05/28 10:41:22;;;;;;;;;0.00;0.00;;;;;19.30;44.86;98089.25;4866532;28;103396;-80
2022/05/28 10:43:49;;;;;;;;;0.33;0.00;;;;;19.29;44.80;98118.59;4865602;28;102142;-80
2022/05/28 10:46:42;;;;;;;;;0.67;0.00;;;;;19.29;44.90;98139.69;4870720;28;102502;-79
2022/05/28 10:49:08;;;;;;;;;1.00;1.00;;;;;19.29;44.80;98136.97;4867287;28;102231;-79
2022/05/28 10:52:00;;;;;;;;;0.00;0.00;;;;;19.29;44.84;98136.97;4870093;28;103654;-80
2022/05/28 10:54:50;;;;;;;;;0.00;0.00;;;;;19.29;44.90;98135.03;4872410;28;102138;-79
2022/05/28 10:57:36;;;;;;;;;0.00;0.00;;;;;19.30;45.13;98131.22;4869906;28;102247;-79
2022/05/28 11:00:15;;;;;;;;;0.00;0.00;;;;;19.29;44.88;98135.03;4874688;28;101711;-80
2022/05/28 11:03:07;;;;;;;;;1.00;1.00;;;;;19.30;44.73;98133.13;4870062;28;103690;-79
2022/05/28 11:06:02;;;;;;;;;0.00;0.00;;;;;19.30;44.97;98123.00;4865273;28;104951;-80
2022/05/28 11:08:39;;;;;;;;;0.00;0.00;;;;;19.29;45.03;98132.31;4868217;28;102206;-80
2022/05/28 11:11:25;;;;;;;;;0.00;0.00;;;;;19.30;45.11;98112.03;4870463;28;101879;-80
2022/05/28 11:13:58;;;;;;;;;0.00;0.00;;;;;19.30;44.89;98101.06;4869997;28;108462;-80
2022/05/28 11:16:53;;;;;;;;;0.00;0.00;;;;;19.30;45.10;98090.09;4871270;28;101847;-79
2022/05/28 11:19:48;;;;;;;;;0.00;0.00;;;;;19.31;44.94;98104.63;4868576;28;102187;-80
2022/05/28 11:22:29;;;;;;;;;0.67;0.33;;;;;19.31;45.07;98107.38;4869013;28;103309;-79
2022/05/28 11:25:04;;;;;;;;;0.33;0.33;;;;;19.31;44.93;98110.94;4866108;28;108069;-79
2022/05/28 11:27:41;;;;;;;;;0.67;0.67;;;;;19.31;44.85;98116.41;4872796;28;101599;-80
2022/05/28 11:30:22;;;;;;;;;0.00;0.00;;;;;19.31;44.76;98108.19;4874392;28;101890;-79
2022/05/28 11:33:02;;;;;;;;;0.00;0.00;;;;;19.33;44.67;98114.22;4858932;28;101902;-79
2022/05/28 11:35:39;;;;;;;;;0.00;0.00;;;;;19.32;44.95;98118.03;4855365;28;108147;-79
2022/05/28 11:38:12;;;;;;;;;0.00;0.00;;;;;19.33;44.74;98113.38;4872321;28;101881;-80
2022/05/28 11:40:57;;;;;;;;;0.33;0.33;;;;;19.32;44.97;98104.34;4864825;28;102138;-79
2022/05/28 11:43:28;;;;;;;;;0.00;0.00;;;;;19.32;45.28;98104.34;4874805;28;101778;-79